createdAt,value
2022-08-12T00:00:27.569Z,82.54
2022-08-12T00:04:47.653Z,82.04
2022-08-12T00:09:08.082Z,81.84
2022-08-12T00:13:28.967Z,82.18
2022-08-12T00:17:49.142Z,82.28
2022-08-12T00:22:09.551Z,82.48
2022-08-12T00:26:33.016Z,82.57
2022-08-12T00:30:54.892Z,81.98
2022-08-12T00:35:14.956Z,81.88
2022-08-12T00:39:36.139Z,81.68
2022-08-12T00:43:38.273Z,81.92
2022-08-12T00:47:40.998Z,81.96
2022-08-12T00:52:02.181Z,81.96
2022-08-12T00:56:05.654Z,81.90
2022-08-12T01:00:10.835Z,81.90
2022-08-12T01:04:45.592Z,81.70
2022-08-12T01:09:05.947Z,81.60
2022-08-12T01:13:18.808Z,80.46
2022-08-12T01:17:22.727Z,78.77
2022-08-12T01:21:27.015Z,77.17
2022-08-12T01:25:32.237Z,76.64
2022-08-12T01:29:37.254Z,77.33
2022-08-12T01:34:04.114Z,75.94
2022-08-12T01:38:11.766Z,75.74
2022-08-12T01:42:16.824Z,75.04
2022-08-12T01:46:56.642Z,74.54
2022-08-12T01:52:14.770Z,74.24
2022-08-12T01:55:43.290Z,74.15
2022-08-12T01:59:50.400Z,74.04
2022-08-12T02:04:28.265Z,73.94
2022-08-12T02:09:00.908Z,74.04
2022-08-12T02:13:10.133Z,74.30
2022-08-12T02:17:57.083Z,74.51
2022-08-12T02:22:07.195Z,74.54
2022-08-12T02:26:09.721Z,75.04
2022-08-12T02:30:15.129Z,75.74
2022-08-12T02:34:17.617Z,76.93
2022-08-12T02:38:21.640Z,80.02
2022-08-12T02:42:24.981Z,80.56
2022-08-12T02:46:32.374Z,80.90
2022-08-12T02:50:36.725Z,81.34
2022-08-12T02:54:40.928Z,81.67
2022-08-12T02:58:45.401Z,82.07
2022-08-12T03:02:47.212Z,82.21
2022-08-12T03:06:57.822Z,82.61
2022-08-12T03:11:14.572Z,83.11
2022-08-12T03:15:22.348Z,83.11
2022-08-12T03:19:24.729Z,83.85
2022-08-12T03:23:30.823Z,84.15
2022-08-12T03:27:33.080Z,84.69
2022-08-12T03:31:34.685Z,85.49
2022-08-12T03:35:41.035Z,85.93
2022-08-12T03:39:45.458Z,85.97
2022-08-12T03:44:14.962Z,85.68
2022-08-12T03:48:35.158Z,85.57
2022-08-12T03:52:55.340Z,85.37
2022-08-12T03:57:15.689Z,84.97
2022-08-12T04:01:19.752Z,85.11
2022-08-12T04:05:22.987Z,84.91
2022-08-12T04:09:25.127Z,85.01
2022-08-12T04:13:26.716Z,84.95
2022-08-12T04:17:28.937Z,84.91
2022-08-12T04:21:32.812Z,85.01
2022-08-12T04:25:39.359Z,84.91
2022-08-12T04:30:29.015Z,84.71
2022-08-12T04:34:04.616Z,85.05
2022-08-12T04:38:07.330Z,85.05
2022-08-12T04:42:08.903Z,84.95
2022-08-12T04:46:11.274Z,85.21
2022-08-12T04:50:33.955Z,85.41
2022-08-12T04:54:35.939Z,85.91
2022-08-12T04:58:38.759Z,86.21
2022-08-12T05:02:40.626Z,86.85
2022-08-12T05:06:42.611Z,86.55
2022-08-12T05:10:48.661Z,86.55
2022-08-12T05:14:50.496Z,86.66
2022-08-12T05:18:52.670Z,86.32
2022-08-12T05:23:12.725Z,86.32
2022-08-12T05:27:15.241Z,86.11
2022-08-12T05:31:47.309Z,85.91
2022-08-12T05:35:41.730Z,85.47
2022-08-12T05:39:43.359Z,85.68
2022-08-12T05:43:47.059Z,85.57
2022-08-12T05:47:53.859Z,85.57
2022-08-12T05:51:57.264Z,86.37
2022-08-12T05:55:58.926Z,86.73
2022-08-12T06:00:00.512Z,87.13
2022-08-12T06:04:02.187Z,86.93
2022-08-12T06:08:07.334Z,87.13
2022-08-12T06:12:09.206Z,87.34
2022-08-12T06:16:12.735Z,87.53
2022-08-12T06:20:22.848Z,87.83
2022-08-12T06:24:31.317Z,88.13
2022-08-12T06:28:32.981Z,88.23
2022-08-12T06:32:34.680Z,88.43
2022-08-12T06:36:37.155Z,88.99
2022-08-12T06:40:57.804Z,89.29
2022-08-12T06:44:59.467Z,89.45
2022-08-12T06:49:01.118Z,89.05
2022-08-12T06:53:05.410Z,88.51
2022-08-12T06:58:05.549Z,88.01
2022-08-12T07:01:31.328Z,87.76
2022-08-12T07:05:33.166Z,88.06
2022-08-12T07:10:06.762Z,86.52
2022-08-12T07:14:11.729Z,84.69
2022-08-12T07:18:18.517Z,83.69
2022-08-12T07:22:23.039Z,83.25
2022-08-12T07:26:24.724Z,82.42
2022-08-12T07:30:30.572Z,82.71
2022-08-12T07:34:32.209Z,82.07
2022-08-12T07:38:38.668Z,81.68
2022-08-12T07:42:41.649Z,81.34
2022-08-12T07:46:43.776Z,80.54
2022-08-12T07:50:45.291Z,79.91
2022-08-12T07:54:46.869Z,77.62
2022-08-12T07:58:48.527Z,76.09
2022-08-12T08:02:53.373Z,76.25
2022-08-12T08:06:55.105Z,75.36
2022-08-12T08:11:18.214Z,74.82
2022-08-12T08:15:33.717Z,73.99
2022-08-12T08:20:03.181Z,73.90
2022-08-12T08:24:14.551Z,73.76
2022-08-12T08:28:21.189Z,72.67
2022-08-12T08:32:24.487Z,72.14
2022-08-12T08:36:26.065Z,72.30
2022-08-12T08:40:47.595Z,72.20
2022-08-12T08:44:50.372Z,71.08
2022-08-12T08:49:01.347Z,71.57
2022-08-12T08:53:02.964Z,71.04
2022-08-12T08:57:08.151Z,71.14
2022-08-12T09:01:09.781Z,70.21
2022-08-12T09:05:15.675Z,70.42
2022-08-12T09:09:18.660Z,70.51
2022-08-12T09:14:10.927Z,69.79
2022-08-12T09:17:55.957Z,68.80
2022-08-12T09:26:22.796Z,69.06
2022-08-12T09:30:42.028Z,68.53
2022-08-12T09:34:45.749Z,67.94
2022-08-12T09:38:59.164Z,67.84
2022-08-12T09:43:21.883Z,66.92
2022-08-12T09:47:29.694Z,66.33
2022-08-12T09:51:38.292Z,67.02
2022-08-12T09:56:06.553Z,67.58
2022-08-12T10:00:28.356Z,67.08
2022-08-12T10:04:32.146Z,66.49
2022-08-12T10:08:36.659Z,65.86
2022-08-12T10:13:07.501Z,66.56
2022-08-12T10:17:16.719Z,65.54
2022-08-12T10:21:36.119Z,64.95
2022-08-12T10:26:35.959Z,65.73
2022-08-12T10:30:40.712Z,64.95
2022-08-12T10:34:53.043Z,64.42
2022-08-12T10:38:56.494Z,64.03
2022-08-12T10:43:17.117Z,63.21
2022-08-12T10:48:01.195Z,63.40
2022-08-12T10:52:03.815Z,63.77
2022-08-12T10:56:08.070Z,62.59
2022-08-12T11:00:30.649Z,62.85
2022-08-12T11:04:45.617Z,61.77
2022-08-12T11:08:51.899Z,62.62
2022-08-12T11:12:59.564Z,62.23
2022-08-12T11:17:34.898Z,61.83
2022-08-12T11:21:51.085Z,61.51
2022-08-12T11:25:57.733Z,62.10
2022-08-12T11:30:05.856Z,61.90
2022-08-12T11:34:51.919Z,61.48
2022-08-12T11:38:29.835Z,60.69
2022-08-12T11:42:32.480Z,60.00
2022-08-12T11:46:41.225Z,60.79
2022-08-12T11:50:43.856Z,60.50
2022-08-12T11:54:50.995Z,60.17
2022-08-12T12:01:58.385Z,59.36
2022-08-12T12:03:17.374Z,59.84
2022-08-12T12:07:19.100Z,58.64
2022-08-12T12:11:22.297Z,58.84
2022-08-12T12:15:25.259Z,57.82
2022-08-12T12:19:45.306Z,57.14
2022-08-12T12:23:48.017Z,56.72
2022-08-12T12:28:03.950Z,56.92
2022-08-12T12:32:11.676Z,57.08
2022-08-12T12:36:20.562Z,55.91
2022-08-12T12:40:29.847Z,56.47
2022-08-12T12:44:41.908Z,56.17
2022-08-12T12:48:52.376Z,55.76
2022-08-12T12:52:54.620Z,56.15
2022-08-12T12:56:58.719Z,55.36
2022-08-12T13:01:04.690Z,55.82
2022-08-12T13:05:29.112Z,55.24
2022-08-12T13:09:36.435Z,54.72
2022-08-12T13:14:07.188Z,55.31
2022-08-12T13:18:04.882Z,54.79
2022-08-12T13:22:18.624Z,54.77
2022-08-12T13:26:20.776Z,54.77
2022-08-12T13:30:23.819Z,54.25
2022-08-12T13:34:33.321Z,54.15
2022-08-12T13:38:42.016Z,53.44
2022-08-12T13:42:48.709Z,53.15
2022-08-12T13:46:58.113Z,52.95
2022-08-12T13:51:00.596Z,53.44
2022-08-12T13:55:06.519Z,53.03
2022-08-12T13:59:08.604Z,53.29
2022-08-12T14:03:12.484Z,53.13
2022-08-12T14:07:14.159Z,53.39
2022-08-12T14:11:19.450Z,52.39
2022-08-12T14:15:36.936Z,52.87
2022-08-12T14:20:00.647Z,52.17
2022-08-12T14:24:11.108Z,52.00
2022-08-12T14:28:18.169Z,52.19
2022-08-12T14:32:21.522Z,52.46
2022-08-12T14:36:26.390Z,51.17
2022-08-12T14:40:29.467Z,51.36
2022-08-12T14:44:57.330Z,51.07
2022-08-12T14:48:54.433Z,50.75
2022-08-12T14:57:23.890Z,50.36
2022-08-12T15:01:45.150Z,49.85
2022-08-12T15:06:06.554Z,50.43
2022-08-12T15:10:13.338Z,50.24
2022-08-12T15:14:15.334Z,50.34
2022-08-12T15:18:22.688Z,50.53
2022-08-12T15:22:37.871Z,50.14
2022-08-12T15:26:46.577Z,50.34
2022-08-12T15:30:52.056Z,50.04
2022-08-12T15:34:54.908Z,50.04
2022-08-12T15:38:57.544Z,50.04
2022-08-12T15:43:00.177Z,50.41
2022-08-12T15:47:04.291Z,50.02
2022-08-12T15:51:06.043Z,49.92
2022-08-12T15:55:14.071Z,51.04
2022-08-12T15:59:20.330Z,52.02
2022-08-12T16:03:46.016Z,51.68
2022-08-12T16:08:00.747Z,51.46
2022-08-12T16:12:03.711Z,51.31
2022-08-12T16:16:22.937Z,51.19
2022-08-12T16:20:33.062Z,50.87
2022-08-12T16:24:39.170Z,51.07
2022-08-12T16:28:47.606Z,51.17
2022-08-12T16:32:52.891Z,52.09
2022-08-12T16:37:00.051Z,52.76
2022-08-12T16:41:01.648Z,53.30
2022-08-12T16:45:03.417Z,53.33
2022-08-12T16:49:13.146Z,53.91
2022-08-12T16:53:18.822Z,53.74
2022-08-12T16:57:34.961Z,52.93
2022-08-12T17:01:49.514Z,52.71
2022-08-12T17:05:53.440Z,52.93
2022-08-12T17:09:56.948Z,53.45
2022-08-12T17:13:59.522Z,53.74
2022-08-12T17:18:42.185Z,54.06
2022-08-12T17:22:36.601Z,54.70
2022-08-12T17:26:40.037Z,55.00
2022-08-12T17:30:43.542Z,55.39
2022-08-12T17:35:03.905Z,55.51
2022-08-12T17:39:09.308Z,55.61
2022-08-12T17:43:56.047Z,55.61
2022-08-12T17:47:36.365Z,56.13
2022-08-12T17:51:49.924Z,56.65
2022-08-12T17:55:52.552Z,56.84
2022-08-12T17:59:56.983Z,56.58
2022-08-12T18:04:20.926Z,56.99
2022-08-12T18:08:22.021Z,57.49
2022-08-12T18:12:50.954Z,58.01
2022-08-12T18:16:55.259Z,58.04
2022-08-12T18:20:57.551Z,58.04
2022-08-12T18:25:06.494Z,58.04
2022-08-12T18:29:09.938Z,58.26
2022-08-12T18:33:12.697Z,58.46
2022-08-12T18:37:26.702Z,58.69
2022-08-12T18:41:39.555Z,58.59
2022-08-12T18:45:57.575Z,58.78
2022-08-12T18:50:00.019Z,59.11
2022-08-12T18:54:06.616Z,59.99
2022-08-12T18:58:11.528Z,61.08
2022-08-12T19:02:21.956Z,61.40
2022-08-12T19:06:25.040Z,61.11
2022-08-12T19:10:31.997Z,61.33
2022-08-12T19:14:38.139Z,61.53
2022-08-12T19:18:44.913Z,62.02
2022-08-12T19:23:01.997Z,63.14
2022-08-12T19:27:09.974Z,63.14
2022-08-12T19:31:56.176Z,63.17
2022-08-12T19:36:24.261Z,62.87
2022-08-12T19:40:32.339Z,63.10
2022-08-12T19:44:37.732Z,63.20
2022-08-12T19:48:40.999Z,63.33
2022-08-12T19:52:44.893Z,63.53
2022-08-12T19:56:50.567Z,63.53
2022-08-12T20:00:54.438Z,63.82
2022-08-12T20:06:03.592Z,63.72
2022-08-12T20:09:19.018Z,64.45
2022-08-12T20:13:26.740Z,65.23
2022-08-12T20:17:30.590Z,65.44
2022-08-12T20:21:41.085Z,65.66
2022-08-12T20:25:57.909Z,65.66
2022-08-12T20:30:06.182Z,65.50
2022-08-12T20:34:07.788Z,65.89
2022-08-12T20:38:26.827Z,65.99
2022-08-12T20:42:31.481Z,65.70
2022-08-12T20:46:33.160Z,65.20
2022-08-12T20:50:36.503Z,64.94
2022-08-12T20:54:40.342Z,65.03
2022-08-12T20:58:42.960Z,65.03
2022-08-12T21:02:49.787Z,65.23
2022-08-12T21:07:08.389Z,65.33
2022-08-12T21:11:11.860Z,65.53
2022-08-12T21:15:23.893Z,65.83
2022-08-12T21:19:52.870Z,65.95
2022-08-12T21:23:58.848Z,66.06
2022-08-12T21:28:01.072Z,66.35
2022-08-12T21:32:39.975Z,66.46
2022-08-12T21:36:34.309Z,66.35
2022-08-12T21:40:36.907Z,66.68
2022-08-12T21:45:43.932Z,66.68
2022-08-12T21:49:04.984Z,66.78
2022-08-12T21:53:10.500Z,66.98
2022-08-12T21:57:15.703Z,66.82
2022-08-12T22:01:22.798Z,66.82
2022-08-12T22:05:44.658Z,66.91
2022-08-12T22:09:46.319Z,67.21
2022-08-12T22:14:02.368Z,67.41
2022-08-12T22:18:09.824Z,67.71
2022-08-12T22:22:12.409Z,67.61
2022-08-12T22:26:16.004Z,67.80
2022-08-12T22:31:09.372Z,68.01
2022-08-12T22:35:55.533Z,68.10
2022-08-12T22:39:52.521Z,68.33
2022-08-12T22:44:13.409Z,68.53
2022-08-12T22:48:18.852Z,68.63
2022-08-12T22:52:28.220Z,68.76
2022-08-12T22:56:35.101Z,68.96
2022-08-12T23:00:38.341Z,69.16
2022-08-12T23:04:39.967Z,69.26
2022-08-12T23:08:44.808Z,69.49
2022-08-12T23:13:05.244Z,69.39
2022-08-12T23:17:07.527Z,69.39
2022-08-12T23:22:03.631Z,69.49
2022-08-12T23:25:54.515Z,69.59
2022-08-12T23:30:17.524Z,69.59
2022-08-12T23:34:20.667Z,69.99
2022-08-12T23:38:34.405Z,70.29
2022-08-12T23:42:36.014Z,70.68
2022-08-12T23:46:38.621Z,70.92
2022-08-12T23:50:42.150Z,71.01
2022-08-12T23:54:47.133Z,71.22
2022-08-12T23:59:01.113Z,71.22
